sensor_id;sensor_type;location;lat;lon;timestamp;temperature;humidity
8563;DHT22;16392;52.508;13.468;2023-01-19T00:01:34;-1.00;99.90
8563;DHT22;16392;52.508;13.468;2023-01-19T00:04:01;-1.10;99.90
8563;DHT22;16392;52.508;13.468;2023-01-19T00:06:29;-1.20;99.90
8563;DHT22;16392;52.508;13.468;2023-01-19T00:08:56;-1.30;99.90
8563;DHT22;16392;52.508;13.468;2023-01-19T00:11:23;-1.20;99.90
8563;DHT22;16392;52.508;13.468;2023-01-19T00:13:50;-1.30;99.90
8563;DHT22;16392;52.508;13.468;2023-01-19T00:16:19;-1.20;99.90
8563;DHT22;16392;52.508;13.468;2023-01-19T00:18:48;-1.20;99.90
8563;DHT22;16392;52.508;13.468;2023-01-19T00:21:16;-1.10;99.90
8563;DHT22;16392;52.508;13.468;2023-01-19T00:23:44;-1.00;99.90
8563;DHT22;16392;52.508;13.468;2023-01-19T00:26:13;-0.90;99.90
8563;DHT22;16392;52.508;13.468;2023-01-19T00:28:40;-0.90;99.90
8563;DHT22;16392;52.508;13.468;2023-01-19T00:31:07;-1.00;99.90
8563;DHT22;16392;52.508;13.468;2023-01-19T00:33:34;-1.00;99.90
8563;DHT22;16392;52.508;13.468;2023-01-19T00:36:00;-1.00;99.90
8563;DHT22;16392;52.508;13.468;2023-01-19T00:38:27;-1.00;99.90
8563;DHT22;16392;52.508;13.468;2023-01-19T00:40:55;-1.10;99.90
8563;DHT22;16392;52.508;13.468;2023-01-19T00:43:22;-1.10;99.90
8563;DHT22;16392;52.508;13.468;2023-01-19T00:45:47;-1.20;99.90
8563;DHT22;16392;52.508;13.468;2023-01-19T00:48:14;-1.10;99.90
8563;DHT22;16392;52.508;13.468;2023-01-19T00:50:41;-1.10;99.90
8563;DHT22;16392;52.508;13.468;2023-01-19T00:53:07;-1.10;99.90
8563;DHT22;16392;52.508;13.468;2023-01-19T00:55:34;-1.20;99.90
8563;DHT22;16392;52.508;13.468;2023-01-19T00:58:03;-1.30;99.90
8563;DHT22;16392;52.508;13.468;2023-01-19T01:00:30;-1.30;99.90
8563;DHT22;16392;52.508;13.468;2023-01-19T01:02:57;-1.30;99.90
8563;DHT22;16392;52.508;13.468;2023-01-19T01:05:24;-1.30;99.90
8563;DHT22;16392;52.508;13.468;2023-01-19T01:07:50;-1.20;99.90
8563;DHT22;16392;52.508;13.468;2023-01-19T01:10:19;-1.20;99.90
8563;DHT22;16392;52.508;13.468;2023-01-19T01:12:47;-1.10;99.90
8563;DHT22;16392;52.508;13.468;2023-01-19T01:15:16;-1.10;99.90
8563;DHT22;16392;52.508;13.468;2023-01-19T01:17:43;-1.10;99.90
8563;DHT22;16392;52.508;13.468;2023-01-19T01:20:16;-1.10;99.90
8563;DHT22;16392;52.508;13.468;2023-01-19T01:22:45;-1.10;99.90
8563;DHT22;16392;52.508;13.468;2023-01-19T01:25:13;-1.20;99.90
8563;DHT22;16392;52.508;13.468;2023-01-19T01:27:40;-1.20;99.90
8563;DHT22;16392;52.508;13.468;2023-01-19T01:30:09;-1.30;99.90
8563;DHT22;16392;52.508;13.468;2023-01-19T01:32:38;-1.30;99.90
8563;DHT22;16392;52.508;13.468;2023-01-19T01:35:05;-1.30;99.90
8563;DHT22;16392;52.508;13.468;2023-01-19T01:37:33;-1.30;99.90
8563;DHT22;16392;52.508;13.468;2023-01-19T01:40:00;-1.30;99.90
8563;DHT22;16392;52.508;13.468;2023-01-19T01:42:29;-1.40;99.90
8563;DHT22;16392;52.508;13.468;2023-01-19T01:44:57;-1.40;99.90
8563;DHT22;16392;52.508;13.468;2023-01-19T01:47:28;-1.50;99.90
8563;DHT22;16392;52.508;13.468;2023-01-19T01:50:01;-1.50;99.90
8563;DHT22;16392;52.508;13.468;2023-01-19T01:52:31;-1.60;99.90
8563;DHT22;16392;52.508;13.468;2023-01-19T01:54:59;-1.60;99.90
8563;DHT22;16392;52.508;13.468;2023-01-19T01:57:28;-1.60;99.90
8563;DHT22;16392;52.508;13.468;2023-01-19T01:59:56;-1.60;99.90
8563;DHT22;16392;52.508;13.468;2023-01-19T02:02:27;-1.70;99.90
8563;DHT22;16392;52.508;13.468;2023-01-19T02:05:18;-1.70;99.90
8563;DHT22;16392;52.508;13.468;2023-01-19T02:07:49;-1.90;99.90
8563;DHT22;16392;52.508;13.468;2023-01-19T02:10:35;-1.90;99.90
8563;DHT22;16392;52.508;13.468;2023-01-19T02:13:21;-1.90;99.90
8563;DHT22;16392;52.508;13.468;2023-01-19T02:15:49;-1.80;99.90
8563;DHT22;16392;52.508;13.468;2023-01-19T02:18:17;-1.80;99.90
8563;DHT22;16392;52.508;13.468;2023-01-19T02:20:56;-1.70;99.90
8563;DHT22;16392;52.508;13.468;2023-01-19T02:23:43;-1.80;99.90
8563;DHT22;16392;52.508;13.468;2023-01-19T02:26:13;-1.70;99.90
8563;DHT22;16392;52.508;13.468;2023-01-19T02:28:42;-1.70;99.90
8563;DHT22;16392;52.508;13.468;2023-01-19T02:31:10;-1.80;99.90
8563;DHT22;16392;52.508;13.468;2023-01-19T02:33:37;-1.70;99.90
8563;DHT22;16392;52.508;13.468;2023-01-19T02:36:05;-1.80;99.90
8563;DHT22;16392;52.508;13.468;2023-01-19T02:38:34;-1.80;99.90
8563;DHT22;16392;52.508;13.468;2023-01-19T02:41:04;-2.00;99.90
8563;DHT22;16392;52.508;13.468;2023-01-19T02:43:32;-2.00;99.90
8563;DHT22;16392;52.508;13.468;2023-01-19T02:45:59;-1.90;99.90
8563;DHT22;16392;52.508;13.468;2023-01-19T02:48:26;-1.90;99.90
8563;DHT22;16392;52.508;13.468;2023-01-19T02:50:56;-1.80;99.90
8563;DHT22;16392;52.508;13.468;2023-01-19T02:53:52;-1.80;99.90
8563;DHT22;16392;52.508;13.468;2023-01-19T02:56:37;-1.80;99.90
8563;DHT22;16392;52.508;13.468;2023-01-19T02:59:08;-1.80;99.90
8563;DHT22;16392;52.508;13.468;2023-01-19T03:01:50;-1.80;99.90
8563;DHT22;16392;52.508;13.468;2023-01-19T03:04:26;-1.80;99.90
8563;DHT22;16392;52.508;13.468;2023-01-19T03:06:58;-1.90;99.90
8563;DHT22;16392;52.508;13.468;2023-01-19T03:09:29;-2.00;99.90
8563;DHT22;16392;52.508;13.468;2023-01-19T03:12:03;-2.10;99.90
8563;DHT22;16392;52.508;13.468;2023-01-19T03:14:36;-2.00;99.90
8563;DHT22;16392;52.508;13.468;2023-01-19T03:17:06;-2.00;99.90
8563;DHT22;16392;52.508;13.468;2023-01-19T03:19:38;-1.90;99.90
8563;DHT22;16392;52.508;13.468;2023-01-19T03:22:08;-1.90;99.90
8563;DHT22;16392;52.508;13.468;2023-01-19T03:24:40;-1.90;99.90
8563;DHT22;16392;52.508;13.468;2023-01-19T03:27:11;-1.90;99.90
8563;DHT22;16392;52.508;13.468;2023-01-19T03:29:41;-2.00;99.90
8563;DHT22;16392;52.508;13.468;2023-01-19T03:32:12;-2.00;99.90
8563;DHT22;16392;52.508;13.468;2023-01-19T03:34:41;-2.10;99.90
8563;DHT22;16392;52.508;13.468;2023-01-19T03:37:10;-2.10;99.90
8563;DHT22;16392;52.508;13.468;2023-01-19T03:39:38;-2.10;99.90
8563;DHT22;16392;52.508;13.468;2023-01-19T03:42:09;-2.20;99.90
8563;DHT22;16392;52.508;13.468;2023-01-19T03:44:38;-2.20;99.90
8563;DHT22;16392;52.508;13.468;2023-01-19T03:47:08;-2.20;99.90
8563;DHT22;16392;52.508;13.468;2023-01-19T03:49:36;-2.20;99.90
8563;DHT22;16392;52.508;13.468;2023-01-19T03:52:04;-2.30;99.90
8563;DHT22;16392;52.508;13.468;2023-01-19T03:54:31;-2.30;99.90
8563;DHT22;16392;52.508;13.468;2023-01-19T03:56:57;-2.40;99.90
8563;DHT22;16392;52.508;13.468;2023-01-19T03:59:25;-2.30;99.90
8563;DHT22;16392;52.508;13.468;2023-01-19T04:01:52;-2.30;99.90
8563;DHT22;16392;52.508;13.468;2023-01-19T04:04:19;-2.30;99.90
8563;DHT22;16392;52.508;13.468;2023-01-19T04:06:46;-2.40;99.90
8563;DHT22;16392;52.508;13.468;2023-01-19T04:09:12;-2.40;99.90
8563;DHT22;16392;52.508;13.468;2023-01-19T04:11:39;-2.40;99.90
8563;DHT22;16392;52.508;13.468;2023-01-19T04:14:05;-2.40;99.90
8563;DHT22;16392;52.508;13.468;2023-01-19T04:16:34;-2.50;99.90
8563;DHT22;16392;52.508;13.468;2023-01-19T04:19:00;-2.60;99.90
8563;DHT22;16392;52.508;13.468;2023-01-19T04:21:27;-2.50;99.90
8563;DHT22;16392;52.508;13.468;2023-01-19T04:23:53;-2.40;99.90
8563;DHT22;16392;52.508;13.468;2023-01-19T04:26:20;-2.40;99.90
8563;DHT22;16392;52.508;13.468;2023-01-19T04:28:47;-2.50;99.90
8563;DHT22;16392;52.508;13.468;2023-01-19T04:31:13;-2.50;99.90
8563;DHT22;16392;52.508;13.468;2023-01-19T04:33:41;-2.50;99.90
8563;DHT22;16392;52.508;13.468;2023-01-19T04:36:08;-2.50;99.90
8563;DHT22;16392;52.508;13.468;2023-01-19T04:38:35;-2.50;99.90
8563;DHT22;16392;52.508;13.468;2023-01-19T04:41:01;-2.60;99.90
8563;DHT22;16392;52.508;13.468;2023-01-19T04:43:28;-2.60;99.90
8563;DHT22;16392;52.508;13.468;2023-01-19T04:45:54;-2.60;99.90
8563;DHT22;16392;52.508;13.468;2023-01-19T04:48:21;-2.60;99.90
8563;DHT22;16392;52.508;13.468;2023-01-19T04:50:50;-2.70;99.90
8563;DHT22;16392;52.508;13.468;2023-01-19T04:53:16;-2.70;99.90
8563;DHT22;16392;52.508;13.468;2023-01-19T04:55:43;-2.80;99.90
8563;DHT22;16392;52.508;13.468;2023-01-19T04:58:11;-2.80;99.90
8563;DHT22;16392;52.508;13.468;2023-01-19T05:00:37;-2.80;99.90
8563;DHT22;16392;52.508;13.468;2023-01-19T05:03:04;-2.90;99.90
8563;DHT22;16392;52.508;13.468;2023-01-19T05:05:30;-2.90;99.90
8563;DHT22;16392;52.508;13.468;2023-01-19T05:08:00;-2.90;99.90
8563;DHT22;16392;52.508;13.468;2023-01-19T05:10:27;-2.90;99.90
8563;DHT22;16392;52.508;13.468;2023-01-19T05:12:54;-3.00;99.90
8563;DHT22;16392;52.508;13.468;2023-01-19T05:15:21;-3.00;99.90
8563;DHT22;16392;52.508;13.468;2023-01-19T05:17:48;-3.10;99.90
8563;DHT22;16392;52.508;13.468;2023-01-19T05:20:14;-3.10;99.90
8563;DHT22;16392;52.508;13.468;2023-01-19T05:22:41;-3.10;99.90
8563;DHT22;16392;52.508;13.468;2023-01-19T05:25:09;-3.10;99.90
8563;DHT22;16392;52.508;13.468;2023-01-19T05:27:36;-3.00;99.90
8563;DHT22;16392;52.508;13.468;2023-01-19T05:30:04;-3.00;99.90
8563;DHT22;16392;52.508;13.468;2023-01-19T05:32:31;-3.00;99.90
8563;DHT22;16392;52.508;13.468;2023-01-19T05:34:58;-3.00;99.90
8563;DHT22;16392;52.508;13.468;2023-01-19T05:37:25;-3.00;99.90
8563;DHT22;16392;52.508;13.468;2023-01-19T05:39:52;-3.10;99.90
8563;DHT22;16392;52.508;13.468;2023-01-19T05:42:20;-3.00;99.90
8563;DHT22;16392;52.508;13.468;2023-01-19T05:44:46;-3.10;99.90
8563;DHT22;16392;52.508;13.468;2023-01-19T05:47:13;-3.10;99.90
8563;DHT22;16392;52.508;13.468;2023-01-19T05:49:40;-3.10;99.90
8563;DHT22;16392;52.508;13.468;2023-01-19T05:52:06;-3.10;99.90
8563;DHT22;16392;52.508;13.468;2023-01-19T05:54:33;-3.20;99.90
8563;DHT22;16392;52.508;13.468;2023-01-19T05:57:00;-3.10;99.90
8563;DHT22;16392;52.508;13.468;2023-01-19T05:59:28;-3.10;99.90
8563;DHT22;16392;52.508;13.468;2023-01-19T06:01:55;-3.10;99.90
8563;DHT22;16392;52.508;13.468;2023-01-19T06:04:21;-3.10;99.90
8563;DHT22;16392;52.508;13.468;2023-01-19T06:06:48;-3.10;99.90
8563;DHT22;16392;52.508;13.468;2023-01-19T06:09:16;-3.10;99.90
8563;DHT22;16392;52.508;13.468;2023-01-19T06:11:42;-3.10;99.90
8563;DHT22;16392;52.508;13.468;2023-01-19T06:14:10;-3.00;99.90
8563;DHT22;16392;52.508;13.468;2023-01-19T06:16:38;-3.00;99.90
8563;DHT22;16392;52.508;13.468;2023-01-19T06:19:05;-3.00;99.90
8563;DHT22;16392;52.508;13.468;2023-01-19T06:21:32;-3.00;99.90
8563;DHT22;16392;52.508;13.468;2023-01-19T06:23:59;-3.00;99.90
8563;DHT22;16392;52.508;13.468;2023-01-19T06:26:26;-3.00;99.90
8563;DHT22;16392;52.508;13.468;2023-01-19T06:28:52;-3.00;99.90
8563;DHT22;16392;52.508;13.468;2023-01-19T06:31:19;-2.90;99.90
8563;DHT22;16392;52.508;13.468;2023-01-19T06:33:47;-2.90;99.90
8563;DHT22;16392;52.508;13.468;2023-01-19T06:36:14;-2.90;99.90
8563;DHT22;16392;52.508;13.468;2023-01-19T06:38:41;-2.90;99.90
8563;DHT22;16392;52.508;13.468;2023-01-19T06:41:08;-2.90;99.90
8563;DHT22;16392;52.508;13.468;2023-01-19T06:43:34;-2.90;99.90
8563;DHT22;16392;52.508;13.468;2023-01-19T06:46:01;-2.80;99.90
8563;DHT22;16392;52.508;13.468;2023-01-19T06:48:29;-2.80;99.90
8563;DHT22;16392;52.508;13.468;2023-01-19T06:50:57;-2.80;99.90
8563;DHT22;16392;52.508;13.468;2023-01-19T06:53:24;-2.80;99.90
8563;DHT22;16392;52.508;13.468;2023-01-19T06:55:52;-2.80;99.90
8563;DHT22;16392;52.508;13.468;2023-01-19T06:58:19;-2.90;99.90
8563;DHT22;16392;52.508;13.468;2023-01-19T07:00:45;-2.90;99.90
8563;DHT22;16392;52.508;13.468;2023-01-19T07:03:46;-2.90;99.90
8563;DHT22;16392;52.508;13.468;2023-01-19T07:06:14;-2.90;99.90
8563;DHT22;16392;52.508;13.468;2023-01-19T07:08:40;-2.90;99.90
8563;DHT22;16392;52.508;13.468;2023-01-19T07:11:08;-2.90;99.90
8563;DHT22;16392;52.508;13.468;2023-01-19T07:13:37;-3.00;99.90
8563;DHT22;16392;52.508;13.468;2023-01-19T07:16:05;-2.90;99.90
8563;DHT22;16392;52.508;13.468;2023-01-19T07:18:32;-2.90;99.90
8563;DHT22;16392;52.508;13.468;2023-01-19T07:20:58;-2.90;99.90
8563;DHT22;16392;52.508;13.468;2023-01-19T07:23:26;-2.90;99.90
8563;DHT22;16392;52.508;13.468;2023-01-19T07:25:54;-2.90;99.90
8563;DHT22;16392;52.508;13.468;2023-01-19T07:28:21;-2.90;99.90
8563;DHT22;16392;52.508;13.468;2023-01-19T07:30:50;-2.80;99.90
8563;DHT22;16392;52.508;13.468;2023-01-19T07:33:16;-2.90;99.90
8563;DHT22;16392;52.508;13.468;2023-01-19T07:35:45;-2.80;99.90
8563;DHT22;16392;52.508;13.468;2023-01-19T07:38:13;-2.90;99.90
8563;DHT22;16392;52.508;13.468;2023-01-19T07:40:40;-2.90;99.90
8563;DHT22;16392;52.508;13.468;2023-01-19T07:43:07;-2.90;99.90
8563;DHT22;16392;52.508;13.468;2023-01-19T07:45:34;-2.90;99.90
8563;DHT22;16392;52.508;13.468;2023-01-19T07:48:01;-2.90;99.90
8563;DHT22;16392;52.508;13.468;2023-01-19T07:50:28;-2.90;99.90
8563;DHT22;16392;52.508;13.468;2023-01-19T07:52:55;-2.90;99.90
8563;DHT22;16392;52.508;13.468;2023-01-19T07:55:22;-2.80;99.90
8563;DHT22;16392;52.508;13.468;2023-01-19T07:57:51;-2.70;99.90
8563;DHT22;16392;52.508;13.468;2023-01-19T08:00:18;-2.70;99.90
8563;DHT22;16392;52.508;13.468;2023-01-19T08:02:49;-2.70;99.90
8563;DHT22;16392;52.508;13.468;2023-01-19T08:05:16;-2.70;99.90
8563;DHT22;16392;52.508;13.468;2023-01-19T08:07:42;-2.60;99.90
8563;DHT22;16392;52.508;13.468;2023-01-19T08:10:11;-2.60;99.90
8563;DHT22;16392;52.508;13.468;2023-01-19T08:12:38;-2.50;99.90
8563;DHT22;16392;52.508;13.468;2023-01-19T08:15:08;-2.40;99.90
8563;DHT22;16392;52.508;13.468;2023-01-19T08:17:35;-2.00;99.90
8563;DHT22;16392;52.508;13.468;2023-01-19T08:20:02;-1.50;99.90
8563;DHT22;16392;52.508;13.468;2023-01-19T08:22:29;-1.00;99.90
8563;DHT22;16392;52.508;13.468;2023-01-19T08:24:56;-0.80;99.90
8563;DHT22;16392;52.508;13.468;2023-01-19T08:27:22;-0.50;99.90
8563;DHT22;16392;52.508;13.468;2023-01-19T08:29:49;-0.20;99.90
8563;DHT22;16392;52.508;13.468;2023-01-19T08:32:17;-0.20;99.90
8563;DHT22;16392;52.508;13.468;2023-01-19T08:34:43;-0.30;33.90
8563;DHT22;16392;52.508;13.468;2023-01-19T08:37:10;-0.20;49.10
8563;DHT22;16392;52.508;13.468;2023-01-19T08:39:37;-0.20;1.00
8563;DHT22;16392;52.508;13.468;2023-01-19T08:42:03;0.00;1.00
8563;DHT22;16392;52.508;13.468;2023-01-19T08:44:30;0.10;1.00
8563;DHT22;16392;52.508;13.468;2023-01-19T08:46:57;0.40;1.00
8563;DHT22;16392;52.508;13.468;2023-01-19T08:49:25;0.30;1.00
8563;DHT22;16392;52.508;13.468;2023-01-19T08:51:52;0.30;1.00
8563;DHT22;16392;52.508;13.468;2023-01-19T08:54:19;0.40;1.00
8563;DHT22;16392;52.508;13.468;2023-01-19T08:56:46;0.50;1.00
8563;DHT22;16392;52.508;13.468;2023-01-19T08:59:12;0.70;1.00
8563;DHT22;16392;52.508;13.468;2023-01-19T09:01:39;0.70;1.00
8563;DHT22;16392;52.508;13.468;2023-01-19T09:04:06;0.90;1.00
8563;DHT22;16392;52.508;13.468;2023-01-19T09:06:34;1.10;99.90
8563;DHT22;16392;52.508;13.468;2023-01-19T09:09:00;1.10;99.90
8563;DHT22;16392;52.508;13.468;2023-01-19T09:11:27;1.30;94.90
8563;DHT22;16392;52.508;13.468;2023-01-19T09:13:55;1.50;1.00
8563;DHT22;16392;52.508;13.468;2023-01-19T09:16:21;1.30;1.00
8563;DHT22;16392;52.508;13.468;2023-01-19T09:18:48;1.30;1.00
8563;DHT22;16392;52.508;13.468;2023-01-19T09:21:14;1.20;99.90
8563;DHT22;16392;52.508;13.468;2023-01-19T09:23:42;1.10;99.90
8563;DHT22;16392;52.508;13.468;2023-01-19T09:26:09;1.00;99.90
8563;DHT22;16392;52.508;13.468;2023-01-19T09:28:36;1.50;99.90
8563;DHT22;16392;52.508;13.468;2023-01-19T09:31:04;1.50;1.00
8563;DHT22;16392;52.508;13.468;2023-01-19T09:33:31;1.50;1.00
8563;DHT22;16392;52.508;13.468;2023-01-19T09:35:58;1.80;1.00
8563;DHT22;16392;52.508;13.468;2023-01-19T09:38:26;2.10;99.90
8563;DHT22;16392;52.508;13.468;2023-01-19T09:40:57;2.40;1.00
8563;DHT22;16392;52.508;13.468;2023-01-19T09:43:33;2.50;99.90
8563;DHT22;16392;52.508;13.468;2023-01-19T09:46:02;2.70;99.90
8563;DHT22;16392;52.508;13.468;2023-01-19T09:48:38;2.70;99.90
8563;DHT22;16392;52.508;13.468;2023-01-19T09:51:12;2.40;99.90
8563;DHT22;16392;52.508;13.468;2023-01-19T09:53:48;2.90;1.00
8563;DHT22;16392;52.508;13.468;2023-01-19T09:56:18;3.30;1.00
8563;DHT22;16392;52.508;13.468;2023-01-19T09:58:46;2.80;1.00
8563;DHT22;16392;52.508;13.468;2023-01-19T10:01:22;2.60;1.00
8563;DHT22;16392;52.508;13.468;2023-01-19T10:04:07;2.30;99.90
8563;DHT22;16392;52.508;13.468;2023-01-19T10:06:36;2.40;1.00
8563;DHT22;16392;52.508;13.468;2023-01-19T10:09:08;2.40;1.00
8563;DHT22;16392;52.508;13.468;2023-01-19T10:11:42;2.40;1.00
8563;DHT22;16392;52.508;13.468;2023-01-19T10:14:14;2.40;99.90
8563;DHT22;16392;52.508;13.468;2023-01-19T10:16:48;2.10;17.90
8563;DHT22;16392;52.508;13.468;2023-01-19T10:19:22;2.10;99.90
8563;DHT22;16392;52.508;13.468;2023-01-19T10:21:50;2.00;1.00
8563;DHT22;16392;52.508;13.468;2023-01-19T10:24:20;2.40;1.00
8563;DHT22;16392;52.508;13.468;2023-01-19T10:26:49;2.90;1.00
8563;DHT22;16392;52.508;13.468;2023-01-19T10:29:23;3.30;1.00
8563;DHT22;16392;52.508;13.468;2023-01-19T10:31:51;3.30;1.00
8563;DHT22;16392;52.508;13.468;2023-01-19T10:34:18;3.10;76.00
8563;DHT22;16392;52.508;13.468;2023-01-19T10:36:47;2.90;99.90
8563;DHT22;16392;52.508;13.468;2023-01-19T10:39:16;3.10;99.90
8563;DHT22;16392;52.508;13.468;2023-01-19T10:41:48;3.20;1.00
8563;DHT22;16392;52.508;13.468;2023-01-19T10:44:22;3.60;99.90
8563;DHT22;16392;52.508;13.468;2023-01-19T10:46:50;3.50;99.90
8563;DHT22;16392;52.508;13.468;2023-01-19T10:49:26;3.50;24.20
8563;DHT22;16392;52.508;13.468;2023-01-19T10:51:55;3.10;1.00
8563;DHT22;16392;52.508;13.468;2023-01-19T10:54:23;3.20;1.00
8563;DHT22;16392;52.508;13.468;2023-01-19T10:56:54;3.70;1.00
8563;DHT22;16392;52.508;13.468;2023-01-19T10:59:31;4.10;19.40
8563;DHT22;16392;52.508;13.468;2023-01-19T11:02:02;4.10;1.00
8563;DHT22;16392;52.508;13.468;2023-01-19T11:04:29;4.10;1.00
8563;DHT22;16392;52.508;13.468;2023-01-19T11:07:12;4.40;1.00
8563;DHT22;16392;52.508;13.468;2023-01-19T11:09:39;4.10;1.00
8563;DHT22;16392;52.508;13.468;2023-01-19T11:12:14;3.90;1.00
8563;DHT22;16392;52.508;13.468;2023-01-19T11:14:41;3.50;99.90
8563;DHT22;16392;52.508;13.468;2023-01-19T11:17:20;3.50;1.00
8563;DHT22;16392;52.508;13.468;2023-01-19T11:19:58;3.20;1.00
8563;DHT22;16392;52.508;13.468;2023-01-19T11:22:28;3.10;1.00
8563;DHT22;16392;52.508;13.468;2023-01-19T11:24:59;2.90;71.20
8563;DHT22;16392;52.508;13.468;2023-01-19T11:27:29;2.70;99.90
8563;DHT22;16392;52.508;13.468;2023-01-19T11:30:01;2.60;99.90
8563;DHT22;16392;52.508;13.468;2023-01-19T11:32:32;2.80;1.00
8563;DHT22;16392;52.508;13.468;2023-01-19T11:35:01;3.20;1.00
8563;DHT22;16392;52.508;13.468;2023-01-19T11:37:30;3.30;99.90
8563;DHT22;16392;52.508;13.468;2023-01-19T11:39:59;3.40;1.00
8563;DHT22;16392;52.508;13.468;2023-01-19T11:42:31;3.30;99.90
8563;DHT22;16392;52.508;13.468;2023-01-19T11:45:03;3.50;99.00
8563;DHT22;16392;52.508;13.468;2023-01-19T11:47:37;3.30;1.00
8563;DHT22;16392;52.508;13.468;2023-01-19T11:50:06;3.50;99.90
8563;DHT22;16392;52.508;13.468;2023-01-19T11:52:41;3.50;1.00
8563;DHT22;16392;52.508;13.468;2023-01-19T11:55:15;3.70;1.00
8563;DHT22;16392;52.508;13.468;2023-01-19T11:57:45;3.70;58.40
8563;DHT22;16392;52.508;13.468;2023-01-19T12:00:23;3.40;1.00
8563;DHT22;16392;52.508;13.468;2023-01-19T12:02:54;3.50;1.00
8563;DHT22;16392;52.508;13.468;2023-01-19T12:05:30;3.60;99.90
8563;DHT22;16392;52.508;13.468;2023-01-19T12:07:59;3.70;1.00
8563;DHT22;16392;52.508;13.468;2023-01-19T12:10:30;3.60;1.00
8563;DHT22;16392;52.508;13.468;2023-01-19T12:12:59;3.20;1.00
8563;DHT22;16392;52.508;13.468;2023-01-19T12:15:31;3.10;1.00
8563;DHT22;16392;52.508;13.468;2023-01-19T12:18:01;3.40;99.90
8563;DHT22;16392;52.508;13.468;2023-01-19T12:20:31;3.20;98.90
8563;DHT22;16392;52.508;13.468;2023-01-19T12:23:08;3.20;1.00
8563;DHT22;16392;52.508;13.468;2023-01-19T12:25:52;3.40;99.90
8563;DHT22;16392;52.508;13.468;2023-01-19T12:28:29;3.20;1.00
8563;DHT22;16392;52.508;13.468;2023-01-19T12:30:58;3.10;10.80
8563;DHT22;16392;52.508;13.468;2023-01-19T12:33:32;3.20;99.90
8563;DHT22;16392;52.508;13.468;2023-01-19T12:36:00;3.50;99.90
8563;DHT22;16392;52.508;13.468;2023-01-19T12:38:48;3.40;1.00
8563;DHT22;16392;52.508;13.468;2023-01-19T12:41:26;3.10;99.90
8563;DHT22;16392;52.508;13.468;2023-01-19T12:44:14;3.10;1.00
8563;DHT22;16392;52.508;13.468;2023-01-19T12:46:44;2.90;1.00
8563;DHT22;16392;52.508;13.468;2023-01-19T12:49:20;3.00;1.00
8563;DHT22;16392;52.508;13.468;2023-01-19T12:51:48;3.10;1.00
8563;DHT22;16392;52.508;13.468;2023-01-19T12:54:19;2.90;1.00
8563;DHT22;16392;52.508;13.468;2023-01-19T12:56:56;2.70;1.00
8563;DHT22;16392;52.508;13.468;2023-01-19T12:59:26;3.00;1.00
8563;DHT22;16392;52.508;13.468;2023-01-19T13:02:38;2.90;1.00
8563;DHT22;16392;52.508;13.468;2023-01-19T13:05:15;3.00;1.00
8563;DHT22;16392;52.508;13.468;2023-01-19T13:08:19;2.80;1.00
8563;DHT22;16392;52.508;13.468;2023-01-19T13:17:00;2.80;1.00
8563;DHT22;16392;52.508;13.468;2023-01-19T13:19:36;2.80;1.00
8563;DHT22;16392;52.508;13.468;2023-01-19T13:25:05;2.70;1.00
8563;DHT22;16392;52.508;13.468;2023-01-19T13:27:33;2.60;1.00
8563;DHT22;16392;52.508;13.468;2023-01-19T13:30:00;2.50;9.20
8563;DHT22;16392;52.508;13.468;2023-01-19T13:32:28;2.40;46.40
8563;DHT22;16392;52.508;13.468;2023-01-19T13:34:56;2.40;51.10
8563;DHT22;16392;52.508;13.468;2023-01-19T13:37:29;2.50;90.40
8563;DHT22;16392;52.508;13.468;2023-01-19T13:39:59;2.50;92.50
8563;DHT22;16392;52.508;13.468;2023-01-19T13:42:29;2.40;51.20
8563;DHT22;16392;52.508;13.468;2023-01-19T13:44:58;2.40;97.90
8563;DHT22;16392;52.508;13.468;2023-01-19T13:47:32;2.30;95.50
8563;DHT22;16392;52.508;13.468;2023-01-19T13:50:05;2.30;99.90
8563;DHT22;16392;52.508;13.468;2023-01-19T13:52:31;2.10;99.90
8563;DHT22;16392;52.508;13.468;2023-01-19T13:54:59;2.10;99.90
8563;DHT22;16392;52.508;13.468;2023-01-19T13:57:27;2.00;99.90
8563;DHT22;16392;52.508;13.468;2023-01-19T14:00:05;1.90;99.90
8563;DHT22;16392;52.508;13.468;2023-01-19T14:02:34;2.00;99.90
8563;DHT22;16392;52.508;13.468;2023-01-19T14:05:12;2.00;99.90
8563;DHT22;16392;52.508;13.468;2023-01-19T14:07:38;1.90;99.90
8563;DHT22;16392;52.508;13.468;2023-01-19T14:10:10;1.90;99.90
8563;DHT22;16392;52.508;13.468;2023-01-19T14:12:38;1.80;99.90
8563;DHT22;16392;52.508;13.468;2023-01-19T14:15:08;1.80;99.90
8563;DHT22;16392;52.508;13.468;2023-01-19T14:17:40;1.70;99.90
8563;DHT22;16392;52.508;13.468;2023-01-19T14:20:28;1.60;99.90
8563;DHT22;16392;52.508;13.468;2023-01-19T14:22:56;1.60;99.90
8563;DHT22;16392;52.508;13.468;2023-01-19T14:25:27;1.60;99.90
8563;DHT22;16392;52.508;13.468;2023-01-19T14:28:28;1.50;99.90
8563;DHT22;16392;52.508;13.468;2023-01-19T14:30:57;1.50;99.90
8563;DHT22;16392;52.508;13.468;2023-01-19T14:33:35;1.40;99.90
8563;DHT22;16392;52.508;13.468;2023-01-19T14:36:09;1.40;99.90
8563;DHT22;16392;52.508;13.468;2023-01-19T14:38:36;1.40;99.90
8563;DHT22;16392;52.508;13.468;2023-01-19T14:41:04;1.40;99.90
8563;DHT22;16392;52.508;13.468;2023-01-19T14:43:31;1.40;99.90
8563;DHT22;16392;52.508;13.468;2023-01-19T14:45:58;1.30;99.90
8563;DHT22;16392;52.508;13.468;2023-01-19T14:48:24;1.30;99.90
8563;DHT22;16392;52.508;13.468;2023-01-19T14:51:01;1.30;99.90
8563;DHT22;16392;52.508;13.468;2023-01-19T14:53:29;1.20;99.90
8563;DHT22;16392;52.508;13.468;2023-01-19T14:56:00;1.20;99.90
8563;DHT22;16392;52.508;13.468;2023-01-19T14:58:30;1.20;99.90
8563;DHT22;16392;52.508;13.468;2023-01-19T15:00:58;1.20;99.90
8563;DHT22;16392;52.508;13.468;2023-01-19T15:03:26;1.20;99.90
8563;DHT22;16392;52.508;13.468;2023-01-19T15:05:54;1.20;99.90
8563;DHT22;16392;52.508;13.468;2023-01-19T15:08:27;1.20;99.90
8563;DHT22;16392;52.508;13.468;2023-01-19T15:10:56;1.10;99.90
8563;DHT22;16392;52.508;13.468;2023-01-19T15:13:24;1.10;99.90
8563;DHT22;16392;52.508;13.468;2023-01-19T15:15:52;1.00;99.90
8563;DHT22;16392;52.508;13.468;2023-01-19T15:18:23;1.00;99.90
8563;DHT22;16392;52.508;13.468;2023-01-19T15:20:50;1.00;99.90
8563;DHT22;16392;52.508;13.468;2023-01-19T15:23:18;1.00;99.90
8563;DHT22;16392;52.508;13.468;2023-01-19T15:25:46;1.00;99.90
8563;DHT22;16392;52.508;13.468;2023-01-19T15:28:14;0.90;99.90
8563;DHT22;16392;52.508;13.468;2023-01-19T15:30:42;0.90;99.90
8563;DHT22;16392;52.508;13.468;2023-01-19T15:33:12;0.80;99.90
8563;DHT22;16392;52.508;13.468;2023-01-19T15:35:42;0.80;99.90
8563;DHT22;16392;52.508;13.468;2023-01-19T15:38:09;0.80;99.90
8563;DHT22;16392;52.508;13.468;2023-01-19T15:40:35;0.80;99.90
8563;DHT22;16392;52.508;13.468;2023-01-19T15:43:04;0.80;99.90
8563;DHT22;16392;52.508;13.468;2023-01-19T15:45:33;0.80;99.90
8563;DHT22;16392;52.508;13.468;2023-01-19T15:48:01;0.80;99.90
8563;DHT22;16392;52.508;13.468;2023-01-19T15:50:29;0.80;99.90
8563;DHT22;16392;52.508;13.468;2023-01-19T15:52:55;0.80;99.90
8563;DHT22;16392;52.508;13.468;2023-01-19T15:55:22;0.80;99.90
8563;DHT22;16392;52.508;13.468;2023-01-19T15:57:49;0.80;99.90
8563;DHT22;16392;52.508;13.468;2023-01-19T16:00:18;0.80;99.90
8563;DHT22;16392;52.508;13.468;2023-01-19T16:02:44;0.80;99.90
8563;DHT22;16392;52.508;13.468;2023-01-19T16:05:11;0.90;99.90